createdAt,value
2023-01-29T00:01:48.625Z,100.00
2023-01-29T00:04:58.736Z,100.00
2023-01-29T00:08:04.819Z,100.00
2023-01-29T00:11:11.100Z,100.00
2023-01-29T00:14:16.863Z,100.00
2023-01-29T00:17:22.170Z,100.00
2023-01-29T00:20:27.855Z,100.00
2023-01-29T00:23:33.442Z,100.00
2023-01-29T00:26:39.755Z,100.00
2023-01-29T00:30:02.672Z,100.00
2023-01-29T00:33:08.006Z,100.00
2023-01-29T00:36:16.157Z,100.00
2023-01-29T00:39:31.476Z,100.00
2023-01-29T00:43:04.260Z,100.00
2023-01-29T00:46:10.912Z,100.00
2023-01-29T00:49:16.418Z,100.00
2023-01-29T00:52:24.895Z,100.00
2023-01-29T00:55:30.060Z,100.00
2023-01-29T00:58:35.679Z,100.00
2023-01-29T01:01:59.307Z,100.00
2023-01-29T01:05:08.086Z,100.00
2023-01-29T01:08:32.769Z,100.00
2023-01-29T01:11:37.964Z,100.00
2023-01-29T01:14:43.512Z,100.00
2023-01-29T01:17:53.141Z,100.00
2023-01-29T01:20:59.812Z,100.00
2023-01-29T01:24:06.347Z,100.00
2023-01-29T01:27:13.518Z,100.00
2023-01-29T01:30:19.142Z,100.00
2023-01-29T01:33:25.064Z,100.00
2023-01-29T01:36:32.668Z,100.00
2023-01-29T01:39:38.008Z,100.00
2023-01-29T01:42:44.478Z,100.00
2023-01-29T01:45:50.154Z,100.00
2023-01-29T01:49:02.306Z,100.00
2023-01-29T01:52:09.154Z,100.00
2023-01-29T01:55:19.539Z,100.00
2023-01-29T01:58:30.864Z,100.00
2023-01-29T02:01:36.412Z,100.00
2023-01-29T02:05:06.766Z,100.00
2023-01-29T02:08:30.922Z,100.00
2023-01-29T02:11:36.990Z,100.00
2023-01-29T02:14:43.841Z,100.00
2023-01-29T02:17:49.046Z,100.00
2023-01-29T02:21:11.034Z,100.00
2023-01-29T02:24:54.963Z,100.00
2023-01-29T02:28:37.229Z,100.00
2023-01-29T02:31:51.944Z,100.00
2023-01-29T02:35:32.255Z,100.00
2023-01-29T02:38:48.002Z,100.00
2023-01-29T02:42:11.990Z,100.00
2023-01-29T02:45:33.270Z,100.00
2023-01-29T02:49:06.670Z,100.00
2023-01-29T02:52:34.064Z,100.00
2023-01-29T02:55:57.670Z,100.00
2023-01-29T02:59:12.725Z,100.00
2023-01-29T03:02:26.295Z,100.00
2023-01-29T03:05:45.080Z,100.00
2023-01-29T03:09:11.105Z,100.00
2023-01-29T03:12:34.404Z,100.00
2023-01-29T03:15:48.597Z,100.00
2023-01-29T03:19:37.017Z,100.00
2023-01-29T03:22:57.239Z,100.00
2023-01-29T03:26:21.350Z,100.00
2023-01-29T03:29:45.474Z,100.00
2023-01-29T03:32:52.355Z,100.00
2023-01-29T03:36:07.513Z,100.00
2023-01-29T03:39:15.779Z,100.00
2023-01-29T03:42:35.761Z,100.00
2023-01-29T03:46:22.677Z,100.00
2023-01-29T03:49:33.048Z,100.00
2023-01-29T03:53:07.072Z,100.00
2023-01-29T03:56:37.839Z,100.00
2023-01-29T04:00:08.375Z,100.00
2023-01-29T04:03:49.286Z,100.00
2023-01-29T04:07:03.493Z,100.00
2023-01-29T04:10:14.590Z,100.00
2023-01-29T04:13:21.814Z,100.00
2023-01-29T04:16:35.228Z,100.00
2023-01-29T04:20:04.807Z,100.00
2023-01-29T04:23:27.102Z,100.00
2023-01-29T04:27:21.558Z,100.00
2023-01-29T04:30:31.009Z,100.00
2023-01-29T04:34:04.281Z,100.00
2023-01-29T04:37:20.802Z,100.00
2023-01-29T04:40:33.139Z,100.00
2023-01-29T04:43:48.288Z,100.00
2023-01-29T04:47:14.777Z,100.00
2023-01-29T04:50:34.246Z,100.00
2023-01-29T04:53:55.783Z,100.00
2023-01-29T04:57:12.550Z,100.00
2023-01-29T05:00:43.541Z,100.00
2023-01-29T05:03:53.211Z,100.00
2023-01-29T05:07:04.690Z,100.00
2023-01-29T05:10:13.446Z,100.00
2023-01-29T05:13:21.359Z,100.00
2023-01-29T05:16:30.948Z,100.00
2023-01-29T05:19:36.314Z,100.00
2023-01-29T05:22:42.839Z,100.00
2023-01-29T05:25:50.191Z,100.00
2023-01-29T05:28:56.276Z,100.00
2023-01-29T05:32:02.049Z,100.00
2023-01-29T05:35:07.888Z,100.00
2023-01-29T05:38:14.314Z,100.00
2023-01-29T05:41:20.177Z,100.00
2023-01-29T05:44:25.576Z,100.00
2023-01-29T05:47:31.440Z,100.00
2023-01-29T05:50:36.614Z,100.00
2023-01-29T05:53:41.792Z,100.00
2023-01-29T05:56:47.056Z,100.00
2023-01-29T05:59:52.431Z,100.00
2023-01-29T06:02:59.467Z,100.00
2023-01-29T06:06:05.259Z,100.00
2023-01-29T06:09:12.203Z,100.00
2023-01-29T06:12:17.477Z,100.00
2023-01-29T06:15:22.646Z,100.00
2023-01-29T06:18:27.815Z,100.00
2023-01-29T06:21:32.881Z,100.00
2023-01-29T06:24:38.148Z,100.00
2023-01-29T06:27:43.679Z,100.00
2023-01-29T06:30:48.911Z,100.00
2023-01-29T06:33:54.216Z,100.00
2023-01-29T06:36:59.969Z,100.00
2023-01-29T06:40:05.484Z,100.00
2023-01-29T06:43:10.428Z,100.00
2023-01-29T06:46:15.532Z,100.00
2023-01-29T06:49:21.412Z,100.00
2023-01-29T06:52:29.507Z,100.00
2023-01-29T06:55:35.063Z,100.00
2023-01-29T06:58:40.733Z,100.00
2023-01-29T07:01:46.076Z,100.00
2023-01-29T07:04:51.782Z,100.00
2023-01-29T07:07:57.672Z,100.00
2023-01-29T07:11:03.429Z,100.00
2023-01-29T07:14:08.972Z,100.00
2023-01-29T07:17:14.612Z,100.00
2023-01-29T07:20:20.118Z,100.00
2023-01-29T07:23:25.819Z,100.00
2023-01-29T07:26:31.785Z,100.00
2023-01-29T07:29:37.580Z,100.00
2023-01-29T07:32:43.044Z,100.00
2023-01-29T07:35:48.310Z,100.00
2023-01-29T07:38:54.069Z,100.00
2023-01-29T07:41:58.965Z,100.00
2023-01-29T07:45:07.312Z,100.00
2023-01-29T07:48:13.622Z,100.00
2023-01-29T07:51:19.115Z,100.00
2023-01-29T07:54:24.692Z,100.00
2023-01-29T07:57:31.094Z,100.00
2023-01-29T08:00:36.895Z,100.00
2023-01-29T08:03:41.905Z,100.00
2023-01-29T08:06:47.088Z,100.00
2023-01-29T08:09:52.069Z,100.00
2023-01-29T08:12:58.860Z,100.00
2023-01-29T08:16:05.024Z,100.00
2023-01-29T08:19:10.240Z,100.00
2023-01-29T08:22:16.739Z,100.00
2023-01-29T08:25:22.828Z,100.00
2023-01-29T08:28:28.983Z,100.00
2023-01-29T08:31:35.559Z,100.00
2023-01-29T08:34:40.959Z,100.00
2023-01-29T08:37:56.748Z,100.00
2023-01-29T08:41:02.353Z,100.00
2023-01-29T08:44:07.990Z,100.00
2023-01-29T08:47:13.241Z,100.00
2023-01-29T08:50:19.110Z,100.00
2023-01-29T08:53:25.230Z,100.00
2023-01-29T08:56:30.432Z,100.00
2023-01-29T08:59:35.344Z,100.00
2023-01-29T09:02:40.748Z,100.00
2023-01-29T09:05:47.057Z,100.00
2023-01-29T09:08:52.168Z,100.00
2023-01-29T09:11:57.348Z,100.00
2023-01-29T09:15:02.519Z,100.00
2023-01-29T09:18:07.395Z,100.00
2023-01-29T09:21:12.548Z,100.00
2023-01-29T09:24:17.695Z,100.00
2023-01-29T09:27:22.661Z,100.00
2023-01-29T09:30:27.898Z,100.00
2023-01-29T09:33:33.260Z,100.00
2023-01-29T09:36:38.421Z,100.00
2023-01-29T09:39:44.024Z,100.00
2023-01-29T09:42:55.958Z,100.00
2023-01-29T09:46:08.419Z,100.00
2023-01-29T09:49:52.472Z,100.00
2023-01-29T09:53:11.222Z,100.00
2023-01-29T09:56:21.973Z,100.00
2023-01-29T09:59:32.755Z,100.00
2023-01-29T10:02:48.633Z,100.00
2023-01-29T10:06:22.090Z,100.00
2023-01-29T10:10:03.287Z,100.00
2023-01-29T10:13:24.311Z,100.00
2023-01-29T10:16:41.882Z,100.00
2023-01-29T10:20:22.521Z,100.00
2023-01-29T10:23:34.492Z,100.00
2023-01-29T10:26:41.686Z,100.00
2023-01-29T10:29:50.864Z,100.00
2023-01-29T10:33:02.081Z,100.00
2023-01-29T10:36:13.493Z,100.00
2023-01-29T10:39:25.004Z,100.00
2023-01-29T10:42:46.876Z,100.00
2023-01-29T10:46:23.138Z,100.00
2023-01-29T10:49:45.787Z,100.00
2023-01-29T10:53:05.761Z,100.00
2023-01-29T10:56:30.163Z,100.00
2023-01-29T11:00:13.636Z,100.00
2023-01-29T11:03:28.248Z,100.00
2023-01-29T11:06:36.915Z,100.00
2023-01-29T11:09:58.198Z,100.00
2023-01-29T11:13:06.421Z,100.00
2023-01-29T11:16:12.064Z,99.96
2023-01-29T11:19:18.079Z,100.00
2023-01-29T11:22:29.403Z,100.00
2023-01-29T11:25:34.855Z,98.43
2023-01-29T11:28:41.551Z,99.26
2023-01-29T11:31:48.602Z,100.00
2023-01-29T11:35:20.893Z,99.89
2023-01-29T11:38:29.369Z,100.00
2023-01-29T11:41:44.078Z,98.85
2023-01-29T11:44:50.380Z,100.00
2023-01-29T11:47:57.396Z,98.02
2023-01-29T11:51:05.554Z,99.33
2023-01-29T11:54:20.079Z,96.59
2023-01-29T11:57:33.981Z,97.17
2023-01-29T12:00:41.605Z,94.04
2023-01-29T12:03:53.581Z,95.62
2023-01-29T12:06:58.917Z,96.96
2023-01-29T12:10:04.898Z,96.07
2023-01-29T12:13:22.486Z,95.64
2023-01-29T12:16:57.212Z,95.72
2023-01-29T12:20:13.171Z,92.96
2023-01-29T12:23:36.985Z,94.27
2023-01-29T12:26:55.764Z,92.83
2023-01-29T12:30:26.518Z,92.17
2023-01-29T12:33:57.751Z,95.91
2023-01-29T12:37:25.478Z,94.80
2023-01-29T12:40:44.524Z,92.29
2023-01-29T12:43:58.583Z,95.84
2023-01-29T12:47:09.000Z,91.89
2023-01-29T12:50:18.420Z,90.08
2023-01-29T12:53:57.494Z,87.36
2023-01-29T12:57:09.010Z,84.30
2023-01-29T13:00:19.797Z,90.53
2023-01-29T13:03:25.841Z,87.35
2023-01-29T13:06:36.738Z,86.85
2023-01-29T13:09:51.116Z,90.76
2023-01-29T13:13:04.471Z,81.75
2023-01-29T13:16:13.469Z,85.34
2023-01-29T13:19:33.505Z,83.59
2023-01-29T13:22:41.465Z,84.85
2023-01-29T13:25:49.859Z,86.44
2023-01-29T13:28:55.634Z,88.51
2023-01-29T13:32:03.693Z,84.01
2023-01-29T13:35:16.098Z,79.11
2023-01-29T13:38:35.967Z,80.91
2023-01-29T13:41:43.799Z,79.89
2023-01-29T13:44:53.426Z,77.34
2023-01-29T13:48:27.824Z,77.23
2023-01-29T13:51:37.007Z,77.48
2023-01-29T13:54:57.802Z,76.61
2023-01-29T13:58:04.090Z,79.62
2023-01-29T14:01:09.588Z,79.98
2023-01-29T14:04:28.915Z,73.24
2023-01-29T14:08:27.003Z,75.17
2023-01-29T14:11:36.565Z,83.73
2023-01-29T14:14:50.819Z,87.54
2023-01-29T14:18:16.943Z,90.70
2023-01-29T14:21:28.909Z,89.54
2023-01-29T14:24:34.398Z,86.42
2023-01-29T14:27:39.904Z,88.26
2023-01-29T14:30:48.925Z,86.51
2023-01-29T14:34:00.405Z,92.17
2023-01-29T14:37:34.626Z,85.74
2023-01-29T14:40:42.421Z,85.77
2023-01-29T14:43:48.123Z,84.96
2023-01-29T14:46:53.425Z,85.47
2023-01-29T14:50:23.358Z,91.60
2023-01-29T14:53:34.191Z,87.54
2023-01-29T14:56:54.770Z,85.18
2023-01-29T15:00:07.417Z,83.24
2023-01-29T15:03:20.506Z,84.28
2023-01-29T15:06:48.252Z,86.54
2023-01-29T15:10:21.443Z,89.37
2023-01-29T15:13:36.329Z,90.11
2023-01-29T15:17:07.838Z,92.84
2023-01-29T15:20:30.304Z,88.20
2023-01-29T15:23:35.871Z,85.68
2023-01-29T15:26:43.629Z,85.90
2023-01-29T15:29:59.727Z,90.82
2023-01-29T15:33:11.108Z,93.85
2023-01-29T15:36:24.256Z,98.64
2023-01-29T15:39:31.956Z,100.00
2023-01-29T15:42:46.939Z,100.00
2023-01-29T15:45:56.738Z,100.00
2023-01-29T15:49:08.708Z,100.00
2023-01-29T15:52:35.430Z,100.00
2023-01-29T15:55:41.966Z,100.00
2023-01-29T15:58:49.672Z,100.00
2023-01-29T16:01:56.655Z,100.00
2023-01-29T16:05:03.167Z,100.00
2023-01-29T16:08:14.526Z,100.00
2023-01-29T16:11:20.658Z,100.00
2023-01-29T16:14:28.093Z,100.00
2023-01-29T16:17:35.997Z,100.00
2023-01-29T16:20:47.619Z,100.00
2023-01-29T16:23:57.230Z,100.00
2023-01-29T16:27:13.280Z,100.00
2023-01-29T16:30:19.211Z,100.00
2023-01-29T16:33:36.145Z,100.00
2023-01-29T16:36:48.750Z,100.00
2023-01-29T16:39:54.824Z,100.00
2023-01-29T16:43:09.194Z,100.00
2023-01-29T16:46:52.684Z,100.00
2023-01-29T16:50:06.062Z,100.00
2023-01-29T16:53:12.982Z,100.00
2023-01-29T16:56:26.091Z,100.00
2023-01-29T16:59:31.490Z,100.00
2023-01-29T17:02:39.842Z,100.00
2023-01-29T17:05:46.320Z,100.00
2023-01-29T17:08:52.651Z,100.00
2023-01-29T17:12:01.862Z,100.00
2023-01-29T17:15:32.293Z,100.00
2023-01-29T17:18:37.636Z,100.00
2023-01-29T17:21:43.654Z,100.00
2023-01-29T17:24:51.863Z,100.00
2023-01-29T17:28:01.091Z,100.00
2023-01-29T17:31:08.097Z,100.00
2023-01-29T17:34:15.215Z,100.00
2023-01-29T17:37:20.411Z,100.00
2023-01-29T17:40:36.995Z,100.00
2023-01-29T17:43:44.629Z,100.00
2023-01-29T17:46:49.999Z,100.00
2023-01-29T17:49:55.429Z,100.00
2023-01-29T17:53:01.912Z,100.00
2023-01-29T17:56:07.469Z,100.00
2023-01-29T17:59:18.284Z,100.00
2023-01-29T18:02:28.942Z,100.00
2023-01-29T18:05:35.716Z,100.00
2023-01-29T18:08:41.188Z,100.00
2023-01-29T18:11:47.859Z,100.00
2023-01-29T18:14:53.215Z,100.00
2023-01-29T18:17:59.099Z,100.00
2023-01-29T18:21:04.539Z,100.00
2023-01-29T18:24:10.150Z,100.00
2023-01-29T18:27:15.511Z,100.00
2023-01-29T18:30:21.701Z,100.00
2023-01-29T18:33:26.980Z,100.00
2023-01-29T18:36:32.565Z,100.00
2023-01-29T18:39:38.172Z,100.00
2023-01-29T18:42:47.233Z,100.00
2023-01-29T18:45:59.100Z,100.00
2023-01-29T18:49:05.461Z,100.00
2023-01-29T18:52:11.530Z,100.00
2023-01-29T18:55:17.214Z,100.00
2023-01-29T18:58:27.272Z,100.00
2023-01-29T19:01:40.278Z,100.00
2023-01-29T19:04:46.198Z,100.00
2023-01-29T19:07:52.692Z,100.00
2023-01-29T19:11:02.647Z,100.00
2023-01-29T19:14:07.905Z,100.00
2023-01-29T19:17:13.598Z,100.00
2023-01-29T19:20:19.594Z,100.00
2023-01-29T19:23:25.256Z,100.00
2023-01-29T19:26:34.380Z,100.00
2023-01-29T19:29:40.112Z,100.00
2023-01-29T19:32:45.570Z,100.00
2023-01-29T19:35:51.369Z,100.00
2023-01-29T19:38:57.400Z,100.00
2023-01-29T19:42:02.829Z,100.00
2023-01-29T19:45:09.151Z,100.00
2023-01-29T19:48:17.920Z,100.00
2023-01-29T19:51:23.630Z,100.00
2023-01-29T19:54:29.767Z,100.00
2023-01-29T19:57:35.380Z,100.00
2023-01-29T20:00:40.937Z,100.00
2023-01-29T20:03:48.333Z,100.00
2023-01-29T20:06:53.602Z,100.00
2023-01-29T20:09:59.278Z,100.00
2023-01-29T20:13:06.304Z,100.00
2023-01-29T20:16:11.626Z,100.00
2023-01-29T20:19:17.123Z,100.00
2023-01-29T20:22:22.661Z,100.00
2023-01-29T20:25:28.083Z,100.00
2023-01-29T20:28:35.037Z,100.00
2023-01-29T20:31:40.499Z,100.00
2023-01-29T20:34:49.865Z,100.00
2023-01-29T20:37:54.991Z,100.00
2023-01-29T20:41:14.571Z,100.00
2023-01-29T20:44:20.217Z,100.00
2023-01-29T20:47:25.945Z,100.00
2023-01-29T20:50:31.299Z,100.00
2023-01-29T20:53:37.567Z,100.00
2023-01-29T20:56:45.123Z,100.00
2023-01-29T20:59:54.406Z,100.00
2023-01-29T21:02:59.655Z,100.00
2023-01-29T21:06:05.559Z,100.00
2023-01-29T21:09:11.136Z,100.00
2023-01-29T21:12:16.776Z,100.00
2023-01-29T21:15:23.655Z,100.00
2023-01-29T21:18:29.057Z,100.00
2023-01-29T21:21:34.862Z,100.00
2023-01-29T21:24:40.218Z,100.00
2023-01-29T21:27:45.722Z,100.00
2023-01-29T21:30:51.309Z,100.00
2023-01-29T21:33:56.556Z,100.00
2023-01-29T21:37:02.155Z,100.00
2023-01-29T21:40:09.513Z,100.00
2023-01-29T21:43:16.378Z,100.00
2023-01-29T21:46:22.035Z,100.00
2023-01-29T21:49:28.127Z,100.00
2023-01-29T21:52:33.480Z,100.00
2023-01-29T21:55:39.361Z,100.00
2023-01-29T21:58:47.591Z,100.00
2023-01-29T22:01:53.383Z,100.00
2023-01-29T22:05:18.679Z,100.00
2023-01-29T22:08:25.280Z,100.00
2023-01-29T22:11:30.690Z,100.00
2023-01-29T22:14:35.972Z,100.00
2023-01-29T22:17:42.145Z,100.00
2023-01-29T22:20:54.151Z,100.00
2023-01-29T22:23:59.676Z,100.00
2023-01-29T22:27:05.123Z,100.00
2023-01-29T22:30:11.619Z,100.00
2023-01-29T22:33:17.716Z,100.00
2023-01-29T22:36:23.442Z,100.00
2023-01-29T22:39:29.032Z,100.00
2023-01-29T22:42:34.835Z,100.00
2023-01-29T22:45:40.212Z,100.00
2023-01-29T22:48:46.234Z,100.00
2023-01-29T22:52:10.676Z,100.00
2023-01-29T22:55:16.219Z,100.00
2023-01-29T22:58:21.682Z,100.00
2023-01-29T23:01:29.870Z,100.00
2023-01-29T23:04:35.933Z,100.00
2023-01-29T23:07:41.600Z,100.00
2023-01-29T23:10:47.182Z,100.00
2023-01-29T23:13:54.730Z,100.00
2023-01-29T23:17:00.886Z,100.00
2023-01-29T23:20:07.197Z,100.00
2023-01-29T23:23:12.845Z,100.00
2023-01-29T23:26:36.915Z,100.00
2023-01-29T23:29:44.881Z,100.00
2023-01-29T23:32:50.492Z,100.00
2023-01-29T23:35:55.800Z,100.00
2023-01-29T23:39:01.450Z,100.00
2023-01-29T23:42:06.766Z,100.00
2023-01-29T23:45:12.272Z,100.00
2023-01-29T23:48:17.913Z,100.00
2023-01-29T23:51:23.849Z,100.00
2023-01-29T23:54:29.473Z,100.00
2023-01-29T23:57:35.222Z,100.00
